Time;durP1;ratioP1;P1;durP2;ratioP2;P2;SDS_P1;SDS_P2;PMS_P1;PMS_P2;Temp;Humidity;BMP_temperature;BMP_pressure;BME280_temperature;BME280_humidity;BME280_pressure;Samples;Min_cycle;Max_cycle;Signal;HPM_P1;HPM_P2
2021/10/09 00:01:19;;;;;;;26.35;16.83;;;9.30;82.20;;;;;;5071803;28;20025;-77
2021/10/09 00:03:44;;;;;;;24.92;16.90;;;9.30;82.30;;;;;;5071666;28;20036;-77
2021/10/09 00:06:10;;;;;;;24.08;15.90;;;9.30;82.30;;;;;;5071470;28;20081;-77
2021/10/09 00:08:35;;;;;;;25.73;16.83;;;9.30;82.30;;;;;;5071577;28;20146;-76
2021/10/09 00:11:01;;;;;;;27.20;16.42;;;9.30;82.50;;;;;;5071767;28;20032;-76
2021/10/09 00:13:27;;;;;;;26.85;15.88;;;9.20;83.30;;;;;;5071982;28;20028;-76
2021/10/09 00:15:52;;;;;;;26.20;16.90;;;9.20;82.50;;;;;;5071825;28;20469;-76
2021/10/09 00:18:18;;;;;;;25.27;16.08;;;9.20;82.30;;;;;;5070883;28;20025;-77
2021/10/09 00:20:44;;;;;;;29.98;17.05;;;9.10;82.00;;;;;;5071702;28;20052;-76
2021/10/09 00:23:09;;;;;;;26.77;16.45;;;9.10;82.00;;;;;;5071713;28;20587;-78
2021/10/09 00:25:35;;;;;;;30.67;17.60;;;9.00;82.00;;;;;;5071285;28;20043;-78
2021/10/09 00:28:00;;;;;;;28.13;18.02;;;9.00;81.90;;;;;;5071331;28;20048;-77
2021/10/09 00:30:26;;;;;;;31.27;18.77;;;8.90;82.40;;;;;;5071390;28;20049;-77
2021/10/09 00:32:51;;;;;;;36.30;18.58;;;8.80;83.20;;;;;;5071590;28;20020;-77
2021/10/09 00:35:17;;;;;;;30.02;18.13;;;8.80;84.70;;;;;;5071217;28;20485;-78
2021/10/09 00:37:43;;;;;;;31.42;19.08;;;8.80;83.20;;;;;;5071592;28;20519;-77
2021/10/09 00:40:09;;;;;;;30.35;17.70;;;8.70;81.50;;;;;;5071495;28;20139;-78
2021/10/09 00:42:34;;;;;;;28.58;17.88;;;8.60;81.50;;;;;;5070861;28;20401;-78
2021/10/09 00:45:00;;;;;;;28.25;17.10;;;8.50;81.50;;;;;;5070966;28;20029;-77
2021/10/09 00:47:25;;;;;;;32.38;19.88;;;8.40;82.30;;;;;;5071190;28;20028;-77
2021/10/09 00:49:51;;;;;;;29.48;18.90;;;8.30;83.70;;;;;;5071049;28;20035;-77
2021/10/09 00:52:18;;;;;;;34.97;21.38;;;8.30;83.90;;;;;;5072652;28;20100;-77
2021/10/09 00:54:46;;;;;;;32.42;19.65;;;8.30;85.00;;;;;;5071216;28;20035;-77
2021/10/09 00:57:16;;;;;;;31.58;20.00;;;8.30;84.10;;;;;;5071139;28;20519;-76
2021/10/09 00:59:42;;;;;;;36.30;20.30;;;8.20;83.70;;;;;;5071258;28;20060;-76
2021/10/09 01:02:07;;;;;;;31.73;18.33;;;8.20;83.80;;;;;;5072435;28;20017;-76
2021/10/09 01:04:34;;;;;;;27.88;18.45;;;8.20;83.70;;;;;;5071079;28;20036;-76
2021/10/09 01:07:04;;;;;;;34.30;19.33;;;8.20;83.70;;;;;;5070808;28;20114;-76
2021/10/09 01:09:30;;;;;;;31.17;17.98;;;8.20;83.80;;;;;;5071303;28;20123;-76
2021/10/09 01:11:56;;;;;;;33.45;19.10;;;8.20;83.80;;;;;;5070820;28;20384;-76
2021/10/09 01:14:21;;;;;;;31.85;18.80;;;8.20;83.90;;;;;;5070722;28;20055;-77
2021/10/09 01:16:47;;;;;;;31.98;18.67;;;8.20;84.10;;;;;;5071045;28;20055;-77
2021/10/09 01:19:13;;;;;;;28.33;17.05;;;8.20;83.90;;;;;;5071013;28;20218;-77
2021/10/09 01:21:45;;;;;;;34.13;19.73;;;8.20;83.40;;;;;;5070965;28;20016;-77
2021/10/09 01:24:10;;;;;;;30.70;19.42;;;8.10;83.10;;;;;;5072294;28;20039;-78
2021/10/09 01:26:37;;;;;;;28.85;17.42;;;8.10;83.50;;;;;;5070853;28;20021;-77
2021/10/09 01:29:04;;;;;;;24.00;16.35;;;8.00;83.50;;;;;;5072046;28;20033;-77
2021/10/09 01:31:31;;;;;;;26.15;16.75;;;8.00;83.30;;;;;;5075848;28;20537;-76
2021/10/09 01:33:56;;;;;;;29.85;20.45;;;7.90;84.40;;;;;;5074852;28;20197;-77
2021/10/09 01:36:22;;;;;;;29.98;18.52;;;7.90;84.00;;;;;;5074476;28;20030;-76
2021/10/09 01:38:52;;;;;;;26.58;18.02;;;7.90;84.50;;;;;;5074871;28;20338;-75
2021/10/09 01:41:18;;;;;;;27.15;16.50;;;7.90;84.60;;;;;;5074460;28;20489;-76
2021/10/09 01:43:44;;;;;;;26.33;16.55;;;8.00;84.30;;;;;;5074221;28;20032;-76
2021/10/09 01:46:09;;;;;;;24.85;16.80;;;7.90;83.60;;;;;;5074396;28;20032;-76
2021/10/09 01:48:37;;;;;;;25.17;16.88;;;7.90;83.10;;;;;;5074776;28;20024;-77
2021/10/09 01:51:05;;;;;;;31.25;17.50;;;7.90;82.70;;;;;;5074444;28;20086;-78
2021/10/09 01:53:31;;;;;;;24.10;16.42;;;7.80;82.40;;;;;;5074534;28;20025;-77
2021/10/09 01:55:56;;;;;;;25.30;16.25;;;7.80;83.00;;;;;;5073944;28;20027;-76
2021/10/09 01:58:22;;;;;;;29.80;18.58;;;7.70;82.40;;;;;;5075528;28;20016;-76
2021/10/09 02:00:48;;;;;;;38.20;23.42;;;7.50;83.90;;;;;;5074282;28;20032;-75
2021/10/09 02:03:16;;;;;;;35.95;22.67;;;7.40;84.30;;;;;;5073913;28;20173;-76
2021/10/09 02:05:42;;;;;;;33.47;21.13;;;7.40;86.10;;;;;;5074180;28;20037;-76
2021/10/09 02:08:08;;;;;;;29.88;19.35;;;7.40;86.40;;;;;;5073837;28;20032;-75
2021/10/09 02:10:38;;;;;;;36.97;22.65;;;7.40;86.00;;;;;;5074203;28;20083;-76
2021/10/09 02:13:06;;;;;;;36.92;20.92;;;7.30;86.00;;;;;;5074041;28;20358;-75
2021/10/09 02:15:36;;;;;;;38.83;22.13;;;7.30;86.20;;;;;;5075219;28;20016;-75
2021/10/09 02:18:30;;;;;;;40.85;23.52;;;7.30;86.80;;;;;;5075333;28;20042;-76
2021/10/09 02:26:25;;;;;;;32.20;20.50;;;7.20;87.90;;;;;;5075397;28;20039;-75
2021/10/09 02:28:51;;;;;;;31.85;19.60;;;7.20;87.40;;;;;;5073753;28;20020;-75
2021/10/09 02:31:16;;;;;;;26.27;16.90;;;7.20;86.10;;;;;;5073646;28;20147;-75
2021/10/09 02:33:42;;;;;;;27.80;17.77;;;7.20;85.40;;;;;;5073834;28;20025;-78
2021/10/09 02:36:07;;;;;;;27.25;16.85;;;7.20;84.90;;;;;;5073078;28;20024;-78
2021/10/09 02:38:33;;;;;;;30.35;20.02;;;7.20;84.40;;;;;;5073638;28;20028;-78
2021/10/09 02:40:58;;;;;;;29.83;19.10;;;7.20;84.40;;;;;;5072450;28;20074;-77
2021/10/09 02:43:24;;;;;;;29.25;18.40;;;7.20;84.40;;;;;;5074840;28;20134;-75
2021/10/09 02:45:49;;;;;;;33.00;20.50;;;7.20;84.70;;;;;;5072993;28;20064;-77
2021/10/09 02:48:16;;;;;;;34.45;21.08;;;7.20;84.90;;;;;;5072878;28;20032;-75
2021/10/09 02:50:43;;;;;;;39.78;22.73;;;7.10;85.90;;;;;;5073415;28;20082;-76
2021/10/09 02:53:09;;;;;;;36.47;24.08;;;7.20;86.30;;;;;;5072953;28;20100;-76
2021/10/09 02:55:34;;;;;;;37.63;23.52;;;7.10;87.00;;;;;;5073440;28;20048;-76
2021/10/09 02:58:00;;;;;;;36.60;23.05;;;7.20;87.10;;;;;;5073134;28;20107;-75
2021/10/09 03:00:25;;;;;;;34.53;21.33;;;7.20;87.30;;;;;;5073275;28;20074;-76
2021/10/09 03:02:51;;;;;;;38.47;22.50;;;7.20;87.30;;;;;;5073100;28;20047;-76
2021/10/09 03:05:18;;;;;;;34.63;21.95;;;7.10;87.80;;;;;;5072642;28;20028;-77
2021/10/09 03:07:44;;;;;;;36.53;22.02;;;7.20;87.60;;;;;;5072943;28;20112;-76
2021/10/09 03:10:11;;;;;;;41.13;23.98;;;7.20;87.80;;;;;;5072679;28;20078;-77
2021/10/09 03:12:37;;;;;;;38.45;23.02;;;7.30;88.20;;;;;;5072920;28;20020;-77
2021/10/09 03:15:05;;;;;;;33.88;21.52;;;7.20;88.80;;;;;;5072666;28;20028;-77
2021/10/09 03:17:31;;;;;;;42.05;25.02;;;7.20;88.60;;;;;;5072224;28;20064;-77
2021/10/09 03:19:56;;;;;;;40.75;24.30;;;7.20;88.50;;;;;;5072625;28;20115;-77
2021/10/09 03:22:22;;;;;;;37.95;23.48;;;7.20;88.70;;;;;;5072370;28;20682;-77
2021/10/09 03:24:48;;;;;;;41.25;25.08;;;7.00;89.20;;;;;;5072130;28;20036;-77
2021/10/09 03:27:13;;;;;;;39.50;25.05;;;7.00;89.30;;;;;;5072182;28;20354;-78
2021/10/09 03:29:39;;;;;;;43.83;25.38;;;7.10;89.50;;;;;;5072476;28;20032;-78
2021/10/09 03:32:05;;;;;;;36.10;23.33;;;7.10;89.20;;;;;;5072426;28;20159;-77
2021/10/09 03:34:33;;;;;;;38.53;24.27;;;7.20;89.20;;;;;;5071945;28;20170;-78
2021/10/09 03:37:00;;;;;;;39.67;25.38;;;7.30;89.50;;;;;;5072402;28;20021;-77
2021/10/09 03:39:26;;;;;;;41.70;25.02;;;7.30;89.40;;;;;;5072325;28;20028;-77
2021/10/09 03:41:57;;;;;;;37.08;24.60;;;7.30;89.20;;;;;;5072009;28;20031;-76
2021/10/09 03:44:22;;;;;;;46.53;26.15;;;7.30;89.20;;;;;;5072262;28;20365;-77
2021/10/09 03:46:59;;;;;;;41.17;24.77;;;7.30;89.30;;;;;;5071846;28;20021;-77
2021/10/09 03:49:48;;;;;;;36.70;21.88;;;7.40;89.40;;;;;;5073653;28;20027;-78
2021/10/09 03:54:59;;;;;;;40.17;24.25;;;7.50;89.20;;;;;;5073741;28;20499;-77
2021/10/09 03:57:25;;;;;;;40.65;25.17;;;7.50;89.00;;;;;;5055388;28;20029;-76
2021/10/09 03:59:50;;;;;;;42.75;24.50;;;7.50;88.90;;;;;;5073332;28;20035;-77
2021/10/09 04:02:16;;;;;;;46.88;24.48;;;7.50;88.90;;;;;;5075171;28;20112;-77
2021/10/09 04:04:41;;;;;;;37.67;22.35;;;7.40;88.90;;;;;;5072619;28;20029;-77
2021/10/09 04:07:07;;;;;;;38.00;23.35;;;7.40;88.90;;;;;;5071725;28;20028;-77
2021/10/09 04:09:32;;;;;;;37.70;23.17;;;7.30;89.10;;;;;;5073371;28;20321;-76
2021/10/09 04:11:58;;;;;;;41.17;25.08;;;7.40;89.20;;;;;;5074646;28;20032;-78
2021/10/09 04:14:23;;;;;;;36.45;21.88;;;7.40;89.20;;;;;;5078838;28;20121;-77
2021/10/09 04:16:49;;;;;;;37.17;22.73;;;7.40;89.20;;;;;;5078165;28;20029;-78
2021/10/09 04:19:14;;;;;;;33.92;21.65;;;7.50;89.10;;;;;;5093017;28;20025;-76
2021/10/09 04:21:40;;;;;;;40.38;23.05;;;7.50;89.00;;;;;;5094390;28;20084;-76
2021/10/09 04:24:05;;;;;;;41.25;24.40;;;7.50;88.20;;;;;;5094671;28;20032;-75
2021/10/09 04:26:31;;;;;;;38.60;23.55;;;7.50;88.70;;;;;;5093422;28;20024;-76
2021/10/09 04:28:56;;;;;;;41.92;24.17;;;7.50;88.60;;;;;;5090245;28;20052;-78
2021/10/09 04:31:23;;;;;;;43.38;25.83;;;7.30;89.10;;;;;;5093689;28;20100;-78
2021/10/09 04:33:49;;;;;;;48.33;25.33;;;7.30;89.40;;;;;;5092066;28;20028;-78
2021/10/09 04:36:14;;;;;;;40.53;24.85;;;7.30;89.50;;;;;;5090375;28;20043;-78
2021/10/09 04:38:40;;;;;;;39.17;24.08;;;7.30;89.50;;;;;;5079084;28;20435;-78
2021/10/09 04:41:06;;;;;;;37.55;23.30;;;7.20;89.20;;;;;;5072970;28;20458;-77
2021/10/09 04:43:31;;;;;;;38.38;21.98;;;7.30;89.10;;;;;;5072027;28;20031;-77
2021/10/09 04:45:57;;;;;;;45.63;26.23;;;7.20;89.10;;;;;;5071804;28;20044;-77
2021/10/09 04:48:22;;;;;;;42.20;25.55;;;7.20;89.30;;;;;;5072261;28;20085;-77
2021/10/09 04:50:48;;;;;;;36.25;22.58;;;7.20;89.40;;;;;;5072806;28;20025;-77
2021/10/09 04:53:14;;;;;;;46.53;25.00;;;7.20;89.50;;;;;;5072389;28;20123;-77
2021/10/09 04:55:39;;;;;;;42.28;24.38;;;7.20;89.60;;;;;;5071928;28;20025;-77
2021/10/09 04:58:05;;;;;;;35.50;22.42;;;7.10;89.80;;;;;;5071829;28;20041;-77
2021/10/09 05:00:30;;;;;;;41.65;22.88;;;7.20;89.70;;;;;;5071360;28;20024;-77
2021/10/09 05:02:56;;;;;;;41.17;23.92;;;7.30;89.70;;;;;;5071573;28;20119;-77
2021/10/09 05:05:21;;;;;;;42.25;24.30;;;7.30;89.60;;;;;;5071056;28;20113;-77
2021/10/09 05:07:49;;;;;;;43.47;23.63;;;7.30;89.10;;;;;;5070275;28;20029;-76
2021/10/09 05:10:15;;;;;;;40.58;23.30;;;7.10;88.70;;;;;;5069890;28;20488;-77
2021/10/09 05:12:40;;;;;;;45.33;25.67;;;7.10;88.90;;;;;;5070157;28;20048;-75
2021/10/09 05:15:06;;;;;;;39.42;23.27;;;7.00;89.00;;;;;;5071212;28;20059;-73
2021/10/09 05:17:32;;;;;;;40.75;23.90;;;6.90;89.40;;;;;;5070400;28;20070;-76
2021/10/09 05:19:58;;;;;;;42.47;24.42;;;6.90;89.50;;;;;;5071011;28;20078;-76
2021/10/09 05:22:23;;;;;;;41.53;25.13;;;6.90;89.60;;;;;;5071325;28;20032;-76
2021/10/09 05:24:53;;;;;;;42.80;23.90;;;6.90;89.20;;;;;;5070658;28;20028;-75
2021/10/09 05:27:20;;;;;;;37.40;23.75;;;6.90;89.20;;;;;;5071110;28;20032;-74
2021/10/09 05:29:47;;;;;;;42.13;23.63;;;6.80;89.20;;;;;;5070578;28;20020;-73
2021/10/09 05:32:20;;;;;;;41.47;23.75;;;6.80;89.20;;;;;;5070918;28;20127;-75
2021/10/09 05:34:45;;;;;;;34.83;22.65;;;6.80;89.10;;;;;;5070864;28;20028;-75
2021/10/09 05:37:11;;;;;;;37.22;23.60;;;6.80;89.10;;;;;;5070676;28;20111;-74
2021/10/09 05:39:36;;;;;;;37.50;22.70;;;6.70;89.20;;;;;;5070894;28;20031;-74
2021/10/09 05:42:02;;;;;;;37.28;22.50;;;6.80;89.10;;;;;;5070521;28;20023;-74
2021/10/09 05:44:28;;;;;;;39.03;22.17;;;6.80;89.10;;;;;;5071886;28;20033;-74
2021/10/09 05:46:53;;;;;;;36.05;21.60;;;6.80;88.70;;;;;;5070569;28;20465;-76
2021/10/09 05:49:19;;;;;;;37.03;22.02;;;6.80;88.70;;;;;;5070541;28;20051;-74
2021/10/09 05:52:11;;;;;;;34.10;21.35;;;6.80;88.60;;;;;;5070839;28;20054;-75
2021/10/09 06:45:24;;;;;;;49.45;27.15;;;7.20;89.70;;;;;;5074500;28;20048;-78
2021/10/09 06:59:26;;;;;;;46.30;27.13;;;7.30;90.70;;;;;;5071801;28;20031;-77
2021/10/09 07:01:35;;;;;;;43.10;26.75;;;7.50;90.50;;;;;;5054408;28;20083;-78
2021/10/09 07:04:01;;;;;;;48.10;28.23;;;7.60;89.20;;;;;;5052923;28;20166;-78
2021/10/09 07:06:26;;;;;;;44.17;26.50;;;7.40;89.90;;;;;;5052531;28;20029;-81
2021/10/09 07:08:52;;;;;;;46.90;28.40;;;7.30;90.90;;;;;;5052867;28;20021;-76
2021/10/09 07:11:18;;;;;;;53.22;27.33;;;7.50;90.90;;;;;;5054678;28;20039;-85
2021/10/09 07:13:44;;;;;;;48.75;28.25;;;7.50;90.50;;;;;;5036478;28;20127;-80
2021/10/09 07:16:09;;;;;;;47.58;28.45;;;7.50;90.80;;;;;;5055769;23;20053;-80
2021/10/09 07:18:35;;;;;;;41.45;25.10;;;7.50;90.60;;;;;;5014758;28;20060;-81
2021/10/09 07:21:01;;;;;;;45.15;24.95;;;7.60;90.50;;;;;;5014178;28;20037;-79
2021/10/09 07:23:27;;;;;;;56.30;22.30;;;7.80;90.00;;;;;;4998477;28;20083;-83
2021/10/09 07:25:59;;;;;;;54.33;28.33;;;8.00;95.20;;;;;;4999156;28;20125;-87
2021/10/09 07:28:24;;;;;;;45.42;26.65;;;8.60;97.90;;;;;;5012491;28;20430;-81
2021/10/09 07:30:50;;;;;;;36.90;23.50;;;9.00;93.70;;;;;;5013957;28;20041;-80
2021/10/09 07:33:16;;;;;;;36.60;23.33;;;9.20;86.90;;;;;;5013057;28;20117;-82
2021/10/09 07:35:41;;;;;;;28.42;19.55;;;9.40;86.70;;;;;;4996555;28;20038;-79
2021/10/09 07:38:07;;;;;;;33.58;19.50;;;9.70;85.60;;;;;;4996815;28;20116;-84
2021/10/09 07:40:32;;;;;;;32.75;18.65;;;10.00;84.00;;;;;;4996583;28;20181;-82
2021/10/09 07:42:59;;;;;;;32.40;18.80;;;10.40;83.10;;;;;;4996838;28;20022;-81
2021/10/09 07:45:24;;;;;;;35.33;20.33;;;10.70;79.00;;;;;;5014329;28;20041;-80
2021/10/09 07:47:50;;;;;;;29.63;19.92;;;10.50;76.80;;;;;;5014005;28;20029;-82
2021/10/09 07:50:15;;;;;;;31.30;19.38;;;10.10;78.20;;;;;;5012239;28;20091;-82
2021/10/09 07:52:41;;;;;;;32.78;20.20;;;9.80;79.70;;;;;;5013896;28;20037;-80
2021/10/09 07:55:08;;;;;;;33.35;20.98;;;9.80;80.50;;;;;;5013718;28;20037;-82
2021/10/09 07:57:34;;;;;;;32.13;20.30;;;9.80;80.30;;;;;;5014112;28;20025;-83
2021/10/09 08:00:00;;;;;;;32.88;20.30;;;9.80;81.50;;;;;;5013849;28;20332;-82
2021/10/09 08:02:26;;;;;;;33.42;20.80;;;9.70;80.80;;;;;;5012673;28;20022;-82
2021/10/09 08:04:51;;;;;;;34.33;20.02;;;9.50;81.40;;;;;;5013651;28;20068;-82
2021/10/09 08:07:17;;;;;;;32.92;19.95;;;9.70;81.80;;;;;;5013692;28;20025;-81
2021/10/09 08:09:43;;;;;;;33.75;22.02;;;9.90;81.60;;;;;;5015026;28;20032;-82
2021/10/09 08:12:08;;;;;;;39.30;24.05;;;10.10;80.90;;;;;;5014832;28;20479;-81
2021/10/09 08:14:34;;;;;;;33.63;21.50;;;10.00;80.90;;;;;;5016512;28;20109;-81
2021/10/09 08:16:59;;;;;;;30.58;20.45;;;9.90;82.60;;;;;;5013820;28;20095;-82
2021/10/09 08:19:25;;;;;;;33.03;21.17;;;9.70;82.20;;;;;;5014039;28;20041;-83
2021/10/09 08:21:52;;;;;;;34.65;21.27;;;9.90;82.50;;;;;;5014043;28;20036;-80
2021/10/09 08:24:30;;;;;;;32.80;20.35;;;9.90;81.90;;;;;;5014443;28;20034;-78
2021/10/09 08:40:36;;;;;;;29.80;18.10;;;10.80;80.30;;;;;;5013601;28;20116;-83
2021/10/09 08:43:01;;;;;;;30.02;16.92;;;11.10;79.60;;;;;;5013173;28;20057;-83
2021/10/09 08:45:27;;;;;;;28.40;17.30;;;11.30;77.40;;;;;;5013468;28;20092;-80
2021/10/09 08:47:53;;;;;;;25.35;16.50;;;11.50;77.10;;;;;;5013801;28;20018;-79
2021/10/09 08:50:19;;;;;;;28.60;16.83;;;11.70;76.00;;;;;;5017016;28;20030;-80
2021/10/09 08:52:59;;;;;;;30.73;17.05;;;11.70;75.80;;;;;;4996210;28;20021;-78
2021/10/09 08:55:28;;;;;;;28.67;17.05;;;11.70;75.70;;;;;;5012387;28;20483;-82
2021/10/09 08:58:01;;;;;;;30.08;17.55;;;11.50;76.80;;;;;;5013966;28;20053;-84
2021/10/09 09:36:47;;;;;;;23.42;15.10;;;14.00;66.80;;;;;;5012211;28;20037;-82
2021/10/09 09:39:13;;;;;;;26.40;15.52;;;14.00;68.80;;;;;;5011346;28;20022;-81
2021/10/09 09:41:48;;;;;;;23.33;13.70;;;14.20;68.00;;;;;;5012400;28;20077;-80
2021/10/09 09:44:16;;;;;;;19.60;12.50;;;14.50;66.60;;;;;;5012050;28;20502;-82
2021/10/09 09:46:59;;;;;;;25.02;13.50;;;14.70;63.50;;;;;;4994582;28;20050;-82
2021/10/09 09:49:27;;;;;;;23.48;13.75;;;14.90;62.80;;;;;;5012351;28;20105;-81
2021/10/09 09:51:54;;;;;;;22.35;11.77;;;14.70;64.20;;;;;;5015610;28;20053;-80
2021/10/09 09:54:25;;;;;;;15.07;8.02;;;14.90;59.60;;;;;;5015792;28;20064;-79
2021/10/09 09:56:54;;;;;;;17.00;7.70;;;15.20;56.30;;;;;;5015692;28;20462;-80
2021/10/09 09:59:27;;;;;;;10.60;6.90;;;15.50;50.00;;;;;;5015807;28;20041;-80
2021/10/09 10:01:52;;;;;;;12.27;7.25;;;15.80;48.30;;;;;;5016301;28;20067;-78
2021/10/09 10:04:19;;;;;;;11.90;6.40;;;16.10;47.20;;;;;;5016161;28;20053;-78
2021/10/09 10:06:44;;;;;;;14.25;6.28;;;16.30;46.00;;;;;;5015948;28;20034;-79
2021/10/09 10:09:10;;;;;;;13.30;5.95;;;16.50;45.90;;;;;;4997660;28;20022;-79
2021/10/09 10:11:36;;;;;;;12.52;8.00;;;16.90;44.80;;;;;;5015840;28;20030;-78
2021/10/09 10:14:04;;;;;;;12.52;9.15;;;17.10;47.40;;;;;;5015751;28;20192;-80
2021/10/09 10:16:30;;;;;;;12.77;8.10;;;17.40;47.90;;;;;;5014231;28;20348;-77
2021/10/09 10:18:58;;;;;;;10.73;6.43;;;17.30;47.90;;;;;;5015664;28;20471;-77
2021/10/09 10:21:29;;;;;;;13.23;6.95;;;17.40;44.50;;;;;;5015490;28;20371;-79
2021/10/09 10:23:55;;;;;;;16.20;8.30;;;17.70;45.30;;;;;;5015684;28;20553;-81
2021/10/09 10:26:21;;;;;;;7.32;5.30;;;17.90;46.10;;;;;;5015443;28;20131;-78
2021/10/09 10:28:58;;;;;;;8.55;5.18;;;18.20;43.10;;;;;;5015397;28;20022;-76
2021/10/09 10:31:26;;;;;;;11.68;5.53;;;18.30;38.10;;;;;;5015368;28;20037;-80
2021/10/09 10:34:23;;;;;;;8.40;4.72;;;18.30;36.30;;;;;;5015417;28;20044;-75
2021/10/09 10:36:49;;;;;;;10.80;4.60;;;18.50;36.30;;;;;;5015244;28;20454;-81
2021/10/09 10:39:20;;;;;;;6.78;4.95;;;18.60;35.40;;;;;;5016249;28;20331;-81
2021/10/09 10:42:01;;;;;;;7.47;5.15;;;18.60;34.80;;;;;;5015742;28;20109;-81
2021/10/09 10:45:08;;;;;;;8.57;4.70;;;18.70;34.50;;;;;;5015165;28;20030;-80
2021/10/09 10:47:43;;;;;;;6.00;4.78;;;19.00;35.00;;;;;;5014849;28;20037;-76
2021/10/09 10:50:42;;;;;;;7.45;5.18;;;19.20;34.50;;;;;;5014748;28;20514;-80
2021/10/09 10:53:12;;;;;;;10.70;5.65;;;19.40;34.20;;;;;;5014728;28;20034;-75
2021/10/09 10:56:14;;;;;;;10.85;5.55;;;19.50;35.00;;;;;;5014752;28;20030;-78
2021/10/09 10:58:39;;;;;;;10.30;5.78;;;19.60;33.90;;;;;;4973748;28;20487;-79
2021/10/09 11:01:14;;;;;;;11.27;5.25;;;19.70;33.20;;;;;;5005895;28;20049;-75
2021/10/09 11:03:49;;;;;;;8.73;4.97;;;19.70;32.50;;;;;;5014596;28;20022;-77
2021/10/09 11:06:20;;;;;;;6.43;4.68;;;19.80;32.70;;;;;;5014454;28;20434;-75
2021/10/09 11:08:47;;;;;;;9.23;4.82;;;19.90;33.10;;;;;;5014746;28;20022;-81
2021/10/09 11:11:13;;;;;;;12.32;4.72;;;20.20;32.60;;;;;;5014624;28;20022;-76
2021/10/09 11:13:41;;;;;;;10.52;5.43;;;20.30;31.60;;;;;;5015878;28;20122;-81
2021/10/09 11:16:07;;;;;;;8.20;5.05;;;20.40;30.80;;;;;;5014983;28;20042;-80
2021/10/09 11:18:53;;;;;;;8.32;4.72;;;20.50;31.10;;;;;;5015477;28;20053;-79
2021/10/09 11:21:21;;;;;;;8.48;4.88;;;20.30;30.00;;;;;;5015839;28;20030;-81
2021/10/09 11:23:54;;;;;;;7.00;4.45;;;20.40;30.80;;;;;;5016681;28;20057;-81
2021/10/09 11:26:21;;;;;;;6.90;5.00;;;20.60;30.90;;;;;;5016451;28;20064;-81
2021/10/09 11:28:47;;;;;;;9.27;5.05;;;20.70;31.40;;;;;;5014275;28;20033;-80
2021/10/09 11:31:33;;;;;;;8.75;4.38;;;20.80;30.30;;;;;;5013779;28;20022;-80
2021/10/09 11:34:02;;;;;;;9.25;5.25;;;21.00;29.20;;;;;;5014047;28;20113;-79
2021/10/09 11:36:29;;;;;;;7.43;4.32;;;21.10;30.10;;;;;;5014548;28;20030;-79
2021/10/09 11:39:14;;;;;;;12.95;5.30;;;21.20;29.70;;;;;;5013893;28;20497;-81
2021/10/09 11:41:43;;;;;;;8.48;5.03;;;21.30;29.00;;;;;;5014255;28;20029;-82
2021/10/09 11:44:32;;;;;;;7.40;4.45;;;21.50;29.60;;;;;;5013842;28;20044;-79
2021/10/09 11:56:00;;;;;;;6.93;3.95;;;22.00;26.50;;;;;;5013880;28;20108;-80
2021/10/09 11:58:26;;;;;;;6.63;3.95;;;21.80;26.00;;;;;;5013790;28;20105;-79
2021/10/09 12:00:52;;;;;;;6.40;4.15;;;22.00;26.40;;;;;;5013582;28;20026;-79
2021/10/09 12:03:30;;;;;;;7.13;3.55;;;22.10;26.30;;;;;;5013389;28;20046;-78
2021/10/09 12:05:59;;;;;;;6.30;3.80;;;22.30;26.70;;;;;;5013540;28;20545;-80
2021/10/09 12:08:28;;;;;;;10.13;4.82;;;22.40;26.50;;;;;;5013146;28;20451;-80
2021/10/09 12:11:29;;;;;;;6.03;3.92;;;22.60;26.60;;;;;;5013423;28;20045;-80
2021/10/09 12:14:06;;;;;;;13.77;4.88;;;22.60;25.70;;;;;;5012170;28;20122;-79
2021/10/09 12:16:48;;;;;;;6.72;4.07;;;22.90;26.50;;;;;;5013267;28;20223;-81
2021/10/09 12:19:24;;;;;;;6.85;4.32;;;23.00;26.30;;;;;;5013206;28;20021;-80
2021/10/09 12:21:53;;;;;;;8.40;4.35;;;22.90;25.80;;;;;;5013254;28;20104;-80
2021/10/09 12:24:21;;;;;;;7.93;4.43;;;23.00;25.90;;;;;;5013111;28;20530;-79
2021/10/09 12:27:06;;;;;;;8.15;4.40;;;23.10;26.10;;;;;;4995474;28;20026;-78
2021/10/09 12:29:37;;;;;;;6.15;4.30;;;23.30;25.90;;;;;;5013108;28;20074;-78
2021/10/09 12:32:13;;;;;;;4.63;3.95;;;23.60;26.00;;;;;;5012767;28;20383;-77
2021/10/09 12:34:39;;;;;;;6.20;4.03;;;23.70;25.60;;;;;;5012701;28;20371;-80
2021/10/09 12:37:24;;;;;;;6.40;3.97;;;23.70;24.40;;;;;;5012724;28;20026;-81
2021/10/09 12:40:17;;;;;;;10.63;4.32;;;23.70;24.50;;;;;;5013300;28;20422;-80
2021/10/09 12:42:48;;;;;;;8.82;4.38;;;23.70;24.20;;;;;;5012935;28;20058;-80
2021/10/09 12:45:14;;;;;;;6.82;4.30;;;23.70;24.70;;;;;;5012750;28;20030;-79
2021/10/09 12:47:41;;;;;;;5.20;4.10;;;23.70;25.10;;;;;;5012836;28;20470;-79
2021/10/09 12:50:07;;;;;;;8.15;4.60;;;23.70;25.00;;;;;;5012618;28;20244;-80
2021/10/09 12:52:33;;;;;;;4.43;3.67;;;23.70;24.50;;;;;;5012641;28;20026;-84
2021/10/09 12:55:02;;;;;;;7.93;4.20;;;23.80;23.50;;;;;;5012566;28;20036;-79
2021/10/09 12:57:27;;;;;;;8.27;4.07;;;23.80;22.20;;;;;;5012307;28;20378;-78
2021/10/09 12:59:53;;;;;;;7.15;4.30;;;23.70;22.50;;;;;;5012453;28;20026;-78
2021/10/09 13:02:18;;;;;;;9.57;4.93;;;23.70;22.90;;;;;;5012402;28;20124;-79
2021/10/09 13:04:44;;;;;;;7.75;4.68;;;23.80;22.90;;;;;;4994802;28;20052;-80
2021/10/09 13:07:10;;;;;;;7.18;4.18;;;23.90;23.40;;;;;;5012591;28;20026;-75
2021/10/09 13:09:35;;;;;;;7.60;4.10;;;23.90;23.00;;;;;;5012560;28;20080;-74
2021/10/09 13:12:03;;;;;;;9.38;4.07;;;23.90;23.10;;;;;;5012439;28;20030;-75
2021/10/09 13:14:28;;;;;;;7.70;3.95;;;24.00;23.00;;;;;;5012334;28;20113;-77
2021/10/09 13:16:54;;;;;;;4.38;3.40;;;24.10;22.70;;;;;;5011939;28;20544;-77
2021/10/09 13:19:20;;;;;;;6.25;3.88;;;24.20;22.00;;;;;;5012375;28;20064;-76
2021/10/09 13:21:45;;;;;;;7.55;4.45;;;24.40;21.60;;;;;;5012051;28;20022;-77
2021/10/09 13:24:11;;;;;;;9.00;4.10;;;24.40;21.30;;;;;;5011959;28;20169;-77
2021/10/09 13:26:37;;;;;;;6.40;4.18;;;24.50;21.40;;;;;;5016455;28;20309;-77
2021/10/09 13:29:03;;;;;;;7.45;3.80;;;24.60;21.30;;;;;;5016379;28;20103;-79
2021/10/09 13:31:29;;;;;;;5.78;3.70;;;24.60;20.90;;;;;;5016298;28;20033;-77
2021/10/09 13:33:56;;;;;;;7.93;4.03;;;24.60;21.40;;;;;;5016328;28;20482;-78
2021/10/09 13:36:22;;;;;;;5.47;4.07;;;24.70;21.70;;;;;;5016144;28;20048;-77
2021/10/09 13:38:48;;;;;;;7.22;4.05;;;25.00;21.50;;;;;;5016082;28;20057;-77
2021/10/09 13:41:14;;;;;;;6.95;4.68;;;25.10;21.70;;;;;;5016070;28;20057;-78
2021/10/09 13:43:39;;;;;;;6.78;4.38;;;25.20;20.90;;;;;;5016261;28;20124;-75
2021/10/09 13:46:06;;;;;;;6.80;4.45;;;25.20;19.90;;;;;;5015933;28;20065;-78
2021/10/09 13:48:32;;;;;;;7.45;4.70;;;25.20;19.80;;;;;;5016034;28;20018;-78
2021/10/09 13:50:57;;;;;;;5.97;4.40;;;25.10;19.60;;;;;;5016270;28;20041;-77
2021/10/09 13:53:23;;;;;;;6.70;4.20;;;25.10;19.40;;;;;;5016096;28;20041;-77
2021/10/09 13:55:50;;;;;;;6.85;4.50;;;25.20;19.20;;;;;;5016020;28;20084;-79
2021/10/09 13:58:16;;;;;;;7.07;4.60;;;25.40;19.20;;;;;;5014710;28;20065;-79
2021/10/09 14:00:43;;;;;;;9.10;4.82;;;25.40;19.20;;;;;;5015812;28;20026;-79
2021/10/09 14:03:10;;;;;;;7.38;4.25;;;25.60;19.10;;;;;;5015692;28;20038;-78
2021/10/09 14:05:36;;;;;;;8.60;4.90;;;25.60;19.10;;;;;;5015434;28;20042;-78
2021/10/09 14:08:03;;;;;;;8.98;5.20;;;25.90;19.30;;;;;;5015397;28;20029;-79
2021/10/09 14:10:30;;;;;;;6.55;4.93;;;26.10;19.60;;;;;;5015643;28;20080;-79
2021/10/09 14:13:00;;;;;;;6.80;5.00;;;26.70;19.40;;;;;;5016077;28;20033;-79
2021/10/09 14:15:27;;;;;;;8.65;5.28;;;27.20;19.20;;;;;;5015591;28;20332;-79
2021/10/09 14:17:53;;;;;;;8.00;5.00;;;27.80;19.10;;;;;;5015346;28;20486;-78
2021/10/09 14:20:19;;;;;;;7.65;5.05;;;28.30;18.20;;;;;;5015533;28;20605;-79
2021/10/09 14:22:45;;;;;;;9.20;5.50;;;29.00;17.70;;;;;;5015362;28;20034;-79
2021/10/09 14:25:12;;;;;;;9.32;5.55;;;30.00;17.10;;;;;;5015331;28;20034;-79
2021/10/09 14:27:39;;;;;;;8.63;5.20;;;31.00;16.20;;;;;;5015316;28;20471;-78
2021/10/09 14:30:06;;;;;;;12.18;5.90;;;31.90;14.90;;;;;;5015406;28;20200;-79
2021/10/09 14:32:32;;;;;;;10.25;5.15;;;32.80;14.10;;;;;;5015442;28;20021;-78
2021/10/09 14:34:57;;;;;;;11.07;5.38;;;33.30;13.70;;;;;;5015153;28;20121;-79
2021/10/09 14:37:23;;;;;;;8.23;5.13;;;34.10;13.00;;;;;;5013807;28;20037;-79
2021/10/09 14:39:49;;;;;;;8.73;5.57;;;34.90;11.90;;;;;;5015078;28;20471;-79
2021/10/09 14:42:15;;;;;;;9.00;5.00;;;35.50;11.20;;;;;;5015133;28;20041;-80
2021/10/09 14:44:41;;;;;;;6.40;4.78;;;35.80;10.40;;;;;;5015202;28;20390;-78
2021/10/09 14:49:52;;;;;;;11.35;4.88;;;36.60;9.20;;;;;;5015030;28;20486;-79
2021/10/09 14:52:37;;;;;;;9.60;4.93;;;36.50;9.00;;;;;;5014808;28;20022;-80
2021/10/09 15:19:22;;;;;;;8.23;5.20;;;35.70;9.80;;;;;;5014848;28;20025;-79